createdAt,value
2022-11-05T00:01:42.354Z,95699.22
2022-11-05T00:04:30.951Z,95703.84
2022-11-05T00:07:29.038Z,95704.59
2022-11-05T00:10:00.721Z,95690.44
2022-11-05T00:12:45.724Z,95696.78
2022-11-05T00:15:30.333Z,95702.97
2022-11-05T00:17:57.746Z,95712.06
2022-11-05T00:20:25.411Z,95698.66
2022-11-05T00:23:18.528Z,95726.38
2022-11-05T00:25:55.866Z,95712.41
2022-11-05T00:28:23.634Z,95734.03
2022-11-05T00:30:51.121Z,95729.88
2022-11-05T00:33:18.546Z,95736.09
2022-11-05T00:35:46.201Z,95730.34
2022-11-05T00:38:13.646Z,95726.84
2022-11-05T00:40:41.079Z,95744.75
2022-11-05T00:43:27.538Z,95742.72
2022-11-05T00:45:55.002Z,95741.72
2022-11-05T00:48:40.914Z,95729.22
2022-11-05T00:51:08.865Z,95738.09
2022-11-05T00:53:36.658Z,95739.38
2022-11-05T00:56:04.410Z,95732.38
2022-11-05T00:58:33.175Z,95736.22
2022-11-05T01:01:02.127Z,95744.44
2022-11-05T01:03:32.057Z,95752.44
2022-11-05T01:06:06.342Z,95758.94
2022-11-05T01:08:33.848Z,95753.88
2022-11-05T01:11:01.434Z,95754.44
2022-11-05T01:13:31.250Z,95753.63
2022-11-05T01:16:07.138Z,95753.09
2022-11-05T01:18:35.783Z,95761.53
2022-11-05T01:21:11.446Z,95767.25
2022-11-05T01:23:39.144Z,95771.09
2022-11-05T01:26:07.048Z,95766.03
2022-11-05T01:28:34.663Z,95770.88
2022-11-05T01:31:03.718Z,95776.28
2022-11-05T01:33:31.139Z,95788.66
2022-11-05T01:35:58.826Z,95778.63
2022-11-05T01:38:26.295Z,95777.06
2022-11-05T01:40:54.028Z,95788.53
2022-11-05T01:43:23.632Z,95780.00
2022-11-05T01:45:53.737Z,95794.63
2022-11-05T01:48:26.230Z,95785.59
2022-11-05T01:50:59.127Z,95782.81
2022-11-05T01:53:30.992Z,95792.03
2022-11-05T01:56:02.017Z,95796.41
2022-11-05T01:58:33.702Z,95778.09
2022-11-05T02:01:01.158Z,95808.03
2022-11-05T02:03:30.849Z,95814.31
2022-11-05T02:06:01.462Z,95815.47
2022-11-05T02:08:42.251Z,95815.34
2022-11-05T02:11:10.279Z,95822.22
2022-11-05T02:13:37.835Z,95820.53
2022-11-05T02:16:13.818Z,95825.59
2022-11-05T02:18:56.919Z,95829.28
2022-11-05T02:21:46.642Z,95823.66
2022-11-05T02:24:56.652Z,95814.19
2022-11-05T02:27:42.297Z,95822.59
2022-11-05T02:30:31.767Z,95828.53
2022-11-05T02:33:16.462Z,95830.84
2022-11-05T02:36:07.418Z,95837.16
2022-11-05T02:38:41.290Z,95828.38
2022-11-05T02:41:17.737Z,95833.84
2022-11-05T02:43:53.666Z,95838.56
2022-11-05T02:46:35.066Z,95836.41
2022-11-05T02:49:14.428Z,95835.47
2022-11-05T02:51:50.046Z,95832.69
2022-11-05T02:54:22.837Z,95830.53
2022-11-05T02:56:53.465Z,95831.75
2022-11-05T02:59:20.963Z,95822.66
2022-11-05T03:01:50.669Z,95831.28
2022-11-05T03:04:22.171Z,95836.72
2022-11-05T03:07:01.904Z,95835.94
2022-11-05T03:09:46.483Z,95831.69
2022-11-05T03:12:27.630Z,95826.16
2022-11-05T03:15:01.214Z,95827.59
2022-11-05T03:17:39.527Z,95828.19
2022-11-05T03:20:18.819Z,95823.31
2022-11-05T03:22:52.398Z,95818.78
2022-11-05T03:25:22.515Z,95823.41
2022-11-05T03:27:56.372Z,95832.16
2022-11-05T03:30:32.522Z,95825.91
2022-11-05T03:33:07.961Z,95833.59
2022-11-05T03:35:40.277Z,95829.63
2022-11-05T03:38:11.200Z,95837.19
2022-11-05T03:40:41.869Z,95837.81
2022-11-05T03:43:10.235Z,95836.09
2022-11-05T03:45:42.729Z,95839.09
2022-11-05T03:48:13.757Z,95844.84
2022-11-05T03:50:46.458Z,95847.22
2022-11-05T03:53:16.848Z,95854.09
2022-11-05T03:55:53.345Z,95849.28
2022-11-05T03:58:22.920Z,95863.34
2022-11-05T04:00:51.794Z,95849.94
2022-11-05T04:03:20.823Z,95860.31
2022-11-05T04:06:09.185Z,95871.03
2022-11-05T04:08:54.048Z,95861.91
2022-11-05T04:11:39.174Z,95868.16
2022-11-05T04:14:06.596Z,95878.28
2022-11-05T04:16:51.616Z,95884.44
2022-11-05T04:19:41.379Z,95884.16
2022-11-05T04:22:26.238Z,95893.72
2022-11-05T04:24:53.709Z,95882.56
2022-11-05T04:27:21.202Z,95889.13
2022-11-05T04:30:06.408Z,95884.28
2022-11-05T04:32:33.846Z,95889.19
2022-11-05T04:35:02.613Z,95890.44
2022-11-05T04:37:30.057Z,95892.94
2022-11-05T04:39:57.536Z,95891.06
2022-11-05T04:42:24.974Z,95896.88
2022-11-05T04:44:52.468Z,95895.31
2022-11-05T04:47:19.894Z,95877.94
2022-11-05T04:49:47.315Z,95888.19
2022-11-05T04:52:17.796Z,95895.00
2022-11-05T04:54:45.250Z,95890.75
2022-11-05T04:57:12.742Z,95892.56
2022-11-05T04:59:41.007Z,95892.97
2022-11-05T05:02:08.607Z,95893.03
2022-11-05T05:04:36.125Z,95898.19
2022-11-05T05:07:03.542Z,95893.53
2022-11-05T05:09:32.290Z,95901.34
2022-11-05T05:11:59.742Z,95888.63
2022-11-05T05:14:27.157Z,95903.63
2022-11-05T05:16:54.633Z,95909.81
2022-11-05T05:19:22.082Z,95909.44
2022-11-05T05:21:48.553Z,95916.06
2022-11-05T05:24:18.507Z,95914.97
2022-11-05T05:26:49.204Z,95896.81
2022-11-05T05:29:17.515Z,95902.94
2022-11-05T05:31:45.940Z,95906.91
2022-11-05T05:34:14.843Z,95914.06
2022-11-05T05:36:42.256Z,95918.22
2022-11-05T05:39:10.701Z,95917.31
2022-11-05T05:41:38.139Z,95918.31
2022-11-05T05:44:07.459Z,95912.44
2022-11-05T05:46:34.885Z,95915.84
2022-11-05T05:49:05.427Z,95921.81
2022-11-05T05:51:35.387Z,95923.38
2022-11-05T05:54:02.820Z,95937.81
2022-11-05T05:56:30.301Z,95933.88
2022-11-05T05:58:57.750Z,95943.78
2022-11-05T06:01:26.573Z,95928.31
2022-11-05T06:03:54.234Z,95941.22
2022-11-05T06:06:22.587Z,95936.41
2022-11-05T06:08:50.060Z,95941.53
2022-11-05T06:11:17.557Z,95950.00
2022-11-05T06:13:45.094Z,95945.25
2022-11-05T06:16:12.550Z,95942.38
2022-11-05T06:18:41.709Z,95945.56
2022-11-05T06:21:11.349Z,95959.25
2022-11-05T06:23:40.233Z,95947.59
2022-11-05T06:26:09.507Z,95948.00
2022-11-05T06:28:37.462Z,95946.03
2022-11-05T06:31:05.739Z,95942.50
2022-11-05T06:33:33.226Z,95942.72
2022-11-05T06:36:03.316Z,95959.75
2022-11-05T06:38:33.947Z,95972.69
2022-11-05T06:41:05.835Z,95969.50
2022-11-05T06:43:36.446Z,95967.97
2022-11-05T06:46:04.501Z,95961.03
2022-11-05T06:48:31.939Z,95984.19
2022-11-05T06:50:59.578Z,95977.69
2022-11-05T06:53:28.746Z,95979.44
2022-11-05T06:55:56.324Z,95980.47
2022-11-05T06:58:23.882Z,95999.84
2022-11-05T07:00:51.417Z,96000.44
2022-11-05T07:03:18.878Z,96000.03
2022-11-05T07:05:49.336Z,96004.56
2022-11-05T07:08:17.402Z,95997.03
2022-11-05T07:10:46.189Z,96002.56
2022-11-05T07:13:13.831Z,96002.97
2022-11-05T07:15:41.546Z,96001.13
2022-11-05T07:18:09.289Z,96003.50
2022-11-05T07:20:36.743Z,96011.41
2022-11-05T07:23:05.392Z,95998.66
2022-11-05T07:25:34.001Z,96013.25
2022-11-05T07:28:03.925Z,96005.28
2022-11-05T07:30:32.244Z,96005.63
2022-11-05T07:33:00.051Z,96020.50
2022-11-05T07:35:28.171Z,96030.44
2022-11-05T07:37:56.217Z,96027.00
2022-11-05T07:40:25.941Z,96032.69
2022-11-05T07:42:54.854Z,96033.44
2022-11-05T07:45:24.667Z,96028.78
2022-11-05T07:47:54.030Z,96027.16
2022-11-05T07:50:23.302Z,96033.78
2022-11-05T07:52:51.139Z,96029.09
2022-11-05T07:55:20.066Z,96032.41
2022-11-05T07:57:49.433Z,96038.94
2022-11-05T08:00:19.848Z,96047.78
2022-11-05T08:03:04.021Z,96037.81
2022-11-05T08:05:37.424Z,96032.22
2022-11-05T08:08:05.837Z,96042.50
2022-11-05T08:10:33.939Z,96049.41
2022-11-05T08:13:01.688Z,96052.66
2022-11-05T08:15:29.566Z,96050.72
2022-11-05T08:18:03.088Z,96043.09
2022-11-05T08:20:30.864Z,96036.34
2022-11-05T08:22:58.640Z,96044.25
2022-11-05T08:25:26.993Z,96038.06
2022-11-05T08:27:58.763Z,96052.66
2022-11-05T08:30:27.013Z,96062.41
2022-11-05T08:32:58.062Z,96062.81
2022-11-05T08:35:27.433Z,96055.84
2022-11-05T08:37:57.870Z,96067.47
2022-11-05T08:40:25.797Z,96043.31
2022-11-05T08:42:53.293Z,96058.94
2022-11-05T08:45:20.693Z,96062.38
2022-11-05T08:47:48.093Z,96058.19
2022-11-05T08:50:15.674Z,96062.53
2022-11-05T08:52:44.412Z,96069.25
2022-11-05T08:55:11.825Z,96063.53
2022-11-05T08:57:39.254Z,96077.81
2022-11-05T09:00:08.103Z,96074.09
2022-11-05T09:02:35.551Z,96073.25
2022-11-05T09:05:03.094Z,96075.19
2022-11-05T09:07:30.534Z,96076.47
2022-11-05T09:09:59.288Z,96078.59
2022-11-05T09:12:26.726Z,96071.78
2022-11-05T09:14:54.194Z,96082.41
2022-11-05T09:17:22.897Z,96079.88
2022-11-05T09:19:50.384Z,96067.25
2022-11-05T09:22:17.869Z,96080.53
2022-11-05T09:24:45.302Z,96082.69
2022-11-05T09:27:14.718Z,96077.81
2022-11-05T09:29:42.243Z,96081.00
2022-11-05T09:32:10.269Z,96076.69
2022-11-05T09:34:37.692Z,96071.63
2022-11-05T09:37:05.251Z,96077.94
2022-11-05T09:39:32.678Z,96083.00
2022-11-05T09:42:05.395Z,96077.59
2022-11-05T09:44:41.726Z,96079.53
2022-11-05T09:47:16.571Z,96086.84
2022-11-05T09:49:49.927Z,96089.25
2022-11-05T09:52:22.382Z,96086.53
2022-11-05T09:54:51.372Z,96085.19
2022-11-05T09:57:24.815Z,96084.16
2022-11-05T09:59:57.038Z,96084.97
2022-11-05T10:02:31.837Z,96096.59
2022-11-05T10:05:09.489Z,96096.34
2022-11-05T10:07:43.940Z,96102.34
2022-11-05T10:10:24.646Z,96105.59
2022-11-05T10:12:55.569Z,96112.50
2022-11-05T10:15:29.053Z,96110.78
2022-11-05T10:18:00.219Z,96104.59
2022-11-05T10:20:33.751Z,96113.63
2022-11-05T10:23:03.442Z,96116.09
2022-11-05T10:25:36.644Z,96121.06
2022-11-05T10:28:05.617Z,96111.34
2022-11-05T10:30:35.179Z,96094.09
2022-11-05T10:33:07.547Z,96116.66
2022-11-05T10:35:41.781Z,96109.56
2022-11-05T10:38:14.951Z,96115.06
2022-11-05T10:40:56.159Z,96120.72
2022-11-05T10:43:29.338Z,96116.78
2022-11-05T10:46:05.151Z,96115.06
2022-11-05T10:48:55.459Z,96124.88
2022-11-05T10:51:23.342Z,96129.59
2022-11-05T10:54:00.308Z,96120.56
2022-11-05T10:56:31.874Z,96131.63
2022-11-05T10:59:01.745Z,96133.66
2022-11-05T11:01:31.628Z,96125.34
2022-11-05T11:04:17.154Z,96117.09
2022-11-05T11:06:50.609Z,96127.00
2022-11-05T11:09:25.528Z,96127.44
2022-11-05T11:12:01.575Z,96132.16
2022-11-05T11:14:29.753Z,96113.63
2022-11-05T11:17:18.489Z,96126.47
2022-11-05T11:19:46.489Z,96135.63
2022-11-05T11:22:20.841Z,96136.31
2022-11-05T11:24:50.774Z,96126.50
2022-11-05T11:27:24.066Z,96127.44
2022-11-05T11:29:57.345Z,96131.50
2022-11-05T11:32:28.983Z,96123.72
2022-11-05T11:34:58.230Z,96134.47
2022-11-05T11:37:28.692Z,96137.72
2022-11-05T11:40:00.900Z,96135.78
2022-11-05T11:42:32.638Z,96126.66
2022-11-05T11:45:05.452Z,96131.28
2022-11-05T11:47:34.545Z,96104.31
2022-11-05T11:50:03.092Z,96127.53
2022-11-05T11:52:32.002Z,96121.88
2022-11-05T11:55:20.750Z,96124.13
2022-11-05T11:57:50.627Z,96127.72
2022-11-05T12:00:19.530Z,96115.97
2022-11-05T12:03:02.131Z,96124.56
2022-11-05T12:05:41.336Z,96121.81
2022-11-05T12:08:23.559Z,96118.19
2022-11-05T12:10:58.786Z,96112.19
2022-11-05T12:13:51.128Z,96111.97
2022-11-05T12:16:29.850Z,96121.72
2022-11-05T12:19:10.009Z,96120.22
2022-11-05T12:21:53.492Z,96128.69
2022-11-05T12:24:37.426Z,96116.81
2022-11-05T12:27:19.353Z,96115.47
2022-11-05T12:29:55.136Z,96105.59
2022-11-05T12:32:41.043Z,96100.38
2022-11-05T12:35:23.390Z,96097.88
2022-11-05T12:37:58.708Z,96099.19
2022-11-05T12:40:44.759Z,96100.38
2022-11-05T12:43:17.831Z,96104.94
2022-11-05T12:45:50.456Z,96105.75
2022-11-05T12:48:36.725Z,96096.50
2022-11-05T12:51:17.046Z,96106.31
2022-11-05T12:53:57.083Z,96096.94
2022-11-05T12:56:32.902Z,96091.66
2022-11-05T12:59:03.948Z,96087.00
2022-11-05T13:01:36.275Z,96079.19
2022-11-05T13:04:11.744Z,96086.84
2022-11-05T13:06:45.612Z,96084.72
2022-11-05T13:09:18.536Z,96075.16
2022-11-05T13:11:52.679Z,96074.25
2022-11-05T13:14:23.938Z,96069.44
2022-11-05T13:16:54.737Z,96064.09
2022-11-05T13:19:25.898Z,96061.94
2022-11-05T13:21:58.583Z,96074.50
2022-11-05T13:24:29.608Z,96062.34
2022-11-05T13:27:01.946Z,96056.84
2022-11-05T13:29:35.151Z,96059.66
2022-11-05T13:32:13.026Z,96062.13
2022-11-05T13:34:40.691Z,96064.25
2022-11-05T13:37:27.897Z,96067.00
2022-11-05T13:39:59.413Z,96061.13
2022-11-05T13:42:48.042Z,96060.03
2022-11-05T13:45:38.916Z,96058.38
2022-11-05T13:48:39.595Z,96057.34
2022-11-05T13:51:39.488Z,96050.34
2022-11-05T13:54:39.929Z,96046.88
2022-11-05T13:57:23.609Z,96051.22
2022-11-05T14:00:07.958Z,96039.53
2022-11-05T14:02:41.286Z,96044.41
2022-11-05T14:05:21.146Z,96049.22
2022-11-05T14:07:49.453Z,96036.94
2022-11-05T14:10:26.839Z,96036.31
2022-11-05T14:12:56.434Z,96035.56
2022-11-05T14:15:28.072Z,96051.72
2022-11-05T14:17:58.540Z,96038.72
2022-11-05T14:20:57.231Z,96041.78
2022-11-05T14:23:52.302Z,96034.00
2022-11-05T14:26:23.793Z,96026.09
2022-11-05T14:29:10.977Z,96021.50
2022-11-05T14:32:08.471Z,96016.13
2022-11-05T14:34:46.378Z,96029.56
2022-11-05T14:37:29.106Z,96031.16
2022-11-05T14:39:57.667Z,96030.09
2022-11-05T14:42:29.444Z,96033.47
2022-11-05T14:45:00.686Z,96030.97
2022-11-05T14:47:31.649Z,96021.97
2022-11-05T14:50:03.079Z,96027.31
2022-11-05T14:52:30.571Z,96015.81
2022-11-05T14:54:59.166Z,96016.47
2022-11-05T14:58:03.016Z,96016.94
2022-11-05T15:00:49.147Z,96026.25
2022-11-05T15:03:32.637Z,96024.09
2022-11-05T15:06:21.789Z,96020.59
2022-11-05T15:09:04.709Z,96026.03
2022-11-05T15:11:36.581Z,96027.06
2022-11-05T15:14:09.221Z,96032.25
2022-11-05T15:16:43.721Z,96037.13
2022-11-05T15:19:18.827Z,96042.22
2022-11-05T15:21:46.665Z,96030.25
2022-11-05T15:24:16.895Z,96049.63
2022-11-05T15:26:48.406Z,96046.50
2022-11-05T15:29:18.893Z,96052.81
2022-11-05T15:31:48.160Z,96056.09
2022-11-05T15:34:22.443Z,96056.09
2022-11-05T15:36:53.349Z,96054.16
2022-11-05T15:39:32.907Z,96060.16
2022-11-05T15:42:05.513Z,96060.81
2022-11-05T15:44:34.860Z,96034.56
2022-11-05T15:47:15.741Z,96069.38
2022-11-05T15:49:45.447Z,96067.69
2022-11-05T15:52:14.636Z,96056.75
2022-11-05T15:54:42.553Z,96053.34
2022-11-05T15:57:23.802Z,96054.63
2022-11-05T15:59:51.551Z,96054.34
2022-11-05T16:02:32.075Z,96061.19
2022-11-05T16:05:01.331Z,96055.78
2022-11-05T16:07:29.438Z,96057.25
2022-11-05T16:09:59.121Z,96068.97
2022-11-05T16:12:32.337Z,96068.63
2022-11-05T16:15:03.746Z,96070.28
2022-11-05T16:17:46.167Z,96077.28
2022-11-05T16:20:26.437Z,96080.91
2022-11-05T16:22:56.070Z,96075.91
2022-11-05T16:25:28.001Z,96072.31
2022-11-05T16:27:55.869Z,96070.97
2022-11-05T16:30:23.786Z,96063.84
2022-11-05T16:32:53.265Z,96069.00
2022-11-05T16:35:22.363Z,96069.97
2022-11-05T16:37:52.454Z,96075.63
2022-11-05T16:40:22.138Z,96085.91
2022-11-05T16:42:51.395Z,96082.75
2022-11-05T16:45:21.220Z,96067.44
2022-11-05T16:47:49.521Z,96068.44
2022-11-05T16:50:23.250Z,96066.19
2022-11-05T16:52:51.639Z,96070.59
2022-11-05T16:55:20.392Z,96071.16
2022-11-05T16:57:50.625Z,96075.91
2022-11-05T17:00:19.848Z,96057.63
2022-11-05T17:02:47.847Z,96059.84
2022-11-05T17:05:22.877Z,96072.38
2022-11-05T17:07:50.599Z,96061.69
2022-11-05T17:10:18.673Z,96063.81
2022-11-05T17:12:47.071Z,96064.25
2022-11-05T17:15:23.183Z,96072.25
2022-11-05T17:17:51.103Z,96066.59
2022-11-05T17:20:38.337Z,96070.63
2022-11-05T17:23:08.967Z,96075.53
2022-11-05T17:25:36.505Z,96080.06
2022-11-05T17:28:04.783Z,96082.22
2022-11-05T17:30:32.984Z,96076.47
2022-11-05T17:33:00.610Z,96076.66
2022-11-05T17:35:29.482Z,96075.09
2022-11-05T17:37:57.090Z,96078.03
2022-11-05T17:40:25.343Z,96073.06
2022-11-05T17:42:53.213Z,96066.09
2022-11-05T17:45:20.663Z,96072.16
2022-11-05T17:47:48.060Z,96065.53
2022-11-05T17:50:17.308Z,96066.53
2022-11-05T17:52:46.106Z,96076.47
2022-11-05T17:55:17.404Z,96070.03
2022-11-05T17:57:47.009Z,96069.47
2022-11-05T18:00:17.056Z,96073.75
2022-11-05T18:02:45.952Z,96080.06
2022-11-05T18:05:14.243Z,96063.72
2022-11-05T18:07:42.222Z,96072.75
2022-11-05T18:10:11.420Z,96072.75
2022-11-05T18:12:39.308Z,96072.28
2022-11-05T18:15:08.384Z,96073.88
2022-11-05T18:17:35.916Z,96067.31
2022-11-05T18:20:03.648Z,96067.44
2022-11-05T18:22:31.078Z,96061.13
2022-11-05T18:24:58.569Z,96064.84
2022-11-05T18:27:27.665Z,96057.19
2022-11-05T18:29:55.645Z,96063.72
2022-11-05T18:32:23.350Z,96061.25
2022-11-05T18:34:50.808Z,96050.75
2022-11-05T18:37:18.612Z,96055.28
2022-11-05T18:39:46.440Z,96036.97
2022-11-05T18:42:13.923Z,96061.13
2022-11-05T18:44:42.736Z,96055.75
2022-11-05T18:47:10.608Z,96049.53
2022-11-05T18:49:38.113Z,96053.28
2022-11-05T18:52:06.194Z,96058.78
2022-11-05T18:54:33.702Z,96054.41
2022-11-05T18:57:01.331Z,96051.25
2022-11-05T18:59:38.689Z,96044.81
2022-11-05T19:02:09.537Z,96019.09
2022-11-05T19:04:37.274Z,96048.09
2022-11-05T19:07:05.847Z,96038.31
2022-11-05T19:09:33.656Z,96042.16
2022-11-05T19:12:01.161Z,96039.31
2022-11-05T19:14:29.861Z,96048.91
2022-11-05T19:16:57.603Z,96043.94
2022-11-05T19:19:26.498Z,96040.69
2022-11-05T19:21:54.197Z,96037.66
2022-11-05T19:24:21.694Z,96037.41
2022-11-05T19:26:49.153Z,96034.97
2022-11-05T19:29:16.635Z,96021.25
2022-11-05T19:31:44.314Z,95995.50
2022-11-05T19:34:13.251Z,96012.38
2022-11-05T19:36:43.163Z,96032.47
2022-11-05T19:39:13.415Z,96028.63
2022-11-05T19:41:40.901Z,96030.81
2022-11-05T19:44:08.903Z,96026.03
2022-11-05T19:46:36.639Z,96045.44
2022-11-05T19:49:04.786Z,96031.09
2022-11-05T19:51:33.367Z,96042.84
2022-11-05T19:54:03.562Z,96029.75
2022-11-05T19:56:32.915Z,96040.13
2022-11-05T19:59:02.929Z,96039.56
2022-11-05T20:01:31.488Z,96036.97
2022-11-05T20:03:59.963Z,95988.13
2022-11-05T20:06:31.769Z,96035.72
2022-11-05T20:11:50.389Z,96042.16
2022-11-05T20:14:18.157Z,96054.66
2022-11-05T20:16:47.084Z,96055.78
2022-11-05T20:19:16.874Z,96053.53
2022-11-05T20:21:45.200Z,96064.06
2022-11-05T20:24:20.571Z,96057.09
2022-11-05T20:26:52.169Z,96048.28
2022-11-05T20:29:19.668Z,96062.84
2022-11-05T20:31:47.856Z,96054.69
2022-11-05T20:34:15.395Z,96052.47
2022-11-05T20:36:43.011Z,96054.69
2022-11-05T20:39:11.892Z,96051.53
2022-11-05T20:41:40.692Z,96047.56
2022-11-05T20:44:08.127Z,96061.69
2022-11-05T20:46:35.806Z,96073.97
2022-11-05T20:49:03.382Z,96057.53
2022-11-05T20:51:30.951Z,96080.25
2022-11-05T20:54:00.366Z,96070.53
2022-11-05T20:56:29.461Z,96074.09
2022-11-05T20:58:59.359Z,96064.72
2022-11-05T21:01:28.389Z,96064.22
2022-11-05T21:03:56.681Z,96070.53
2022-11-05T21:06:24.156Z,96062.53
2022-11-05T21:08:52.955Z,96059.94
2022-11-05T21:11:21.042Z,96072.09
2022-11-05T21:13:49.161Z,96061.19
2022-11-05T21:16:19.579Z,96054.72
2022-11-05T21:18:48.315Z,96052.13
2022-11-05T21:21:17.500Z,96058.19
2022-11-05T21:23:45.012Z,96048.34
2022-11-05T21:26:13.934Z,96068.00
2022-11-05T21:28:42.170Z,96077.22
2022-11-05T21:31:10.623Z,96080.81
2022-11-05T21:33:39.740Z,96073.81
2022-11-05T21:36:09.239Z,96063.47
2022-11-05T21:38:37.163Z,96063.25
2022-11-05T21:41:05.737Z,96068.44
2022-11-05T21:43:33.877Z,96071.09
2022-11-05T21:46:02.139Z,96044.88
2022-11-05T21:48:29.901Z,96060.09
2022-11-05T21:51:12.668Z,96053.41
2022-11-05T21:53:58.760Z,96028.50
2022-11-05T21:56:45.034Z,96066.34
2022-11-05T21:59:32.219Z,96063.13
2022-11-05T22:02:02.410Z,96063.91
2022-11-05T22:04:30.409Z,96063.56
2022-11-05T22:06:59.510Z,96057.56
2022-11-05T22:09:27.746Z,96058.50
2022-11-05T22:11:55.700Z,96053.97
2022-11-05T22:14:24.166Z,96052.41
2022-11-05T22:16:51.682Z,96051.38
2022-11-05T22:19:19.630Z,96048.47
2022-11-05T22:21:47.743Z,96043.03
2022-11-05T22:24:16.897Z,96041.59
2022-11-05T22:26:45.335Z,96017.16
2022-11-05T22:29:13.450Z,96023.44
2022-11-05T22:31:41.270Z,96006.94
2022-11-05T22:34:10.333Z,96017.00
2022-11-05T22:36:37.971Z,96010.22
2022-11-05T22:39:06.040Z,96017.31
2022-11-05T22:41:34.914Z,96009.13
2022-11-05T22:44:03.464Z,95987.81
2022-11-05T22:46:31.649Z,96012.50
2022-11-05T22:49:00.566Z,96012.50
2022-11-05T22:51:29.770Z,96011.50
2022-11-05T22:53:57.918Z,95975.56
2022-11-05T22:56:27.370Z,96006.09
2022-11-05T22:58:56.724Z,95996.88
2022-11-05T23:01:25.521Z,95991.56
2022-11-05T23:03:55.378Z,95985.94
2022-11-05T23:06:42.250Z,95987.97
2022-11-05T23:09:32.061Z,95975.38
2022-11-05T23:11:59.822Z,95987.88
2022-11-05T23:14:29.328Z,95970.06
2022-11-05T23:17:14.226Z,95989.22
2022-11-05T23:19:59.434Z,95998.13
2022-11-05T23:22:46.190Z,95983.34
2022-11-05T23:25:17.467Z,95983.59
2022-11-05T23:27:46.830Z,95985.81
2022-11-05T23:30:18.733Z,95970.38
2022-11-05T23:32:45.202Z,95989.22
2022-11-05T23:35:13.206Z,95999.00
2022-11-05T23:38:00.710Z,95998.75
2022-11-05T23:40:29.881Z,95993.94
2022-11-05T23:43:15.543Z,95990.53
2022-11-05T23:46:03.240Z,95993.81
2022-11-05T23:48:33.112Z,95970.94
2022-11-05T23:51:02.895Z,95976.56
2022-11-05T23:53:31.822Z,95968.00
2022-11-05T23:56:01.277Z,95930.34
2022-11-05T23:58:28.983Z,95958.19
